createdAt,value
2022-12-01T00:02:11.269Z,29.80
2022-12-01T00:04:38.208Z,29.35
2022-12-01T00:07:05.024Z,30.00
2022-12-01T00:09:50.580Z,32.75
2022-12-01T00:12:17.784Z,31.80
2022-12-01T00:14:55.096Z,31.67
2022-12-01T00:17:25.145Z,32.72
2022-12-01T00:19:51.994Z,28.02
2022-12-01T00:22:19.293Z,28.73
2022-12-01T00:24:46.981Z,35.78
2022-12-01T00:27:13.749Z,30.92
2022-12-01T00:29:40.971Z,30.55
2022-12-01T00:32:08.629Z,29.85
2022-12-01T00:34:38.116Z,28.98
2022-12-01T00:37:05.203Z,30.05
2022-12-01T00:39:32.092Z,29.50
2022-12-01T00:41:58.924Z,31.83
2022-12-01T00:44:25.770Z,24.80
2022-12-01T00:46:52.630Z,27.85
2022-12-01T00:49:19.637Z,29.05
2022-12-01T00:51:47.960Z,31.00
2022-12-01T00:54:14.997Z,27.55
2022-12-01T00:56:41.806Z,28.73
2022-12-01T00:59:08.551Z,27.08
2022-12-01T01:01:35.450Z,27.30
2022-12-01T01:04:02.523Z,26.38
2022-12-01T01:06:29.908Z,25.17
2022-12-01T01:08:58.287Z,25.65
2022-12-01T01:11:25.635Z,23.17
2022-12-01T01:13:52.503Z,23.23
2022-12-01T01:16:22.074Z,22.98
2022-12-01T01:18:49.447Z,23.33
2022-12-01T01:21:19.249Z,20.17
2022-12-01T01:23:46.165Z,21.25
2022-12-01T01:26:17.681Z,21.13
2022-12-01T01:28:45.336Z,19.23
2022-12-01T01:31:15.248Z,19.67
2022-12-01T01:33:42.303Z,19.55
2022-12-01T01:36:09.593Z,21.92
2022-12-01T01:38:36.768Z,21.40
2022-12-01T01:41:05.019Z,20.67
2022-12-01T01:43:46.210Z,22.17
2022-12-01T01:46:15.240Z,19.98
2022-12-01T01:48:45.355Z,22.33
2022-12-01T01:51:14.365Z,22.08
2022-12-01T01:53:42.924Z,22.80
2022-12-01T01:56:10.173Z,22.63
2022-12-01T01:58:38.853Z,21.52
2022-12-01T02:01:07.777Z,22.48
2022-12-01T02:03:37.201Z,23.13
2022-12-01T02:06:06.421Z,19.77
2022-12-01T02:08:35.678Z,19.83
2022-12-01T02:11:20.682Z,20.50
2022-12-01T02:13:54.101Z,19.17
2022-12-01T02:16:32.210Z,20.08
2022-12-01T02:19:11.905Z,21.27
2022-12-01T02:21:53.225Z,20.67
2022-12-01T02:25:07.142Z,22.50
2022-12-01T02:28:02.342Z,23.98
2022-12-01T02:30:38.915Z,24.20
2022-12-01T02:33:11.958Z,22.63
2022-12-01T02:35:47.342Z,24.23
2022-12-01T02:38:22.197Z,26.23
2022-12-01T02:40:55.581Z,28.33
2022-12-01T02:43:30.055Z,28.67
2022-12-01T02:46:02.983Z,26.48
2022-12-01T02:48:34.370Z,30.77
2022-12-01T02:51:06.667Z,24.80
2022-12-01T02:53:34.636Z,31.65
2022-12-01T02:56:01.669Z,29.77
2022-12-01T02:58:28.656Z,26.65
2022-12-01T03:01:08.307Z,28.88
2022-12-01T03:03:59.866Z,26.85
2022-12-01T03:06:37.496Z,27.52
2022-12-01T03:09:15.820Z,29.05
2022-12-01T03:11:57.035Z,29.77
2022-12-01T03:14:33.526Z,27.17
2022-12-01T03:17:07.334Z,26.15
2022-12-01T03:19:40.324Z,24.77
2022-12-01T03:22:13.086Z,28.10
2022-12-01T03:24:44.210Z,26.40
2022-12-01T03:27:12.712Z,26.52
2022-12-01T03:29:43.830Z,25.00
2022-12-01T03:32:20.091Z,23.95
2022-12-01T03:34:50.057Z,23.30
2022-12-01T03:37:22.486Z,20.88
2022-12-01T03:39:55.923Z,22.70
2022-12-01T03:42:29.418Z,21.10
2022-12-01T03:45:01.072Z,21.67
2022-12-01T03:47:32.485Z,21.70
2022-12-01T03:50:00.783Z,23.48
2022-12-01T03:52:39.564Z,22.60
2022-12-01T03:55:12.078Z,23.20
2022-12-01T03:57:46.544Z,23.85
2022-12-01T04:00:15.565Z,27.63
2022-12-01T04:02:47.365Z,24.85
2022-12-01T04:05:15.054Z,25.70
2022-12-01T04:07:41.994Z,27.45
2022-12-01T04:10:09.552Z,27.45
2022-12-01T04:12:36.488Z,26.20
2022-12-01T04:15:08.145Z,26.33
2022-12-01T04:17:35.190Z,30.52
2022-12-01T04:20:06.669Z,29.23
2022-12-01T04:22:33.939Z,25.70
2022-12-01T04:25:00.832Z,26.75
2022-12-01T04:27:27.762Z,28.20
2022-12-01T04:29:54.571Z,25.95
2022-12-01T04:32:21.379Z,28.65
2022-12-01T04:34:48.163Z,27.20
2022-12-01T04:37:18.349Z,28.23
2022-12-01T04:39:45.230Z,28.60
2022-12-01T04:42:12.063Z,26.73
2022-12-01T04:44:38.916Z,28.98
2022-12-01T04:47:06.941Z,28.33
2022-12-01T04:49:35.171Z,27.98
2022-12-01T04:52:01.951Z,29.75
2022-12-01T04:54:30.173Z,29.92
2022-12-01T04:56:57.003Z,28.17
2022-12-01T04:59:23.990Z,33.97
2022-12-01T05:01:51.020Z,31.45
2022-12-01T05:04:17.987Z,27.35
2022-12-01T05:06:45.063Z,29.90
2022-12-01T05:09:17.449Z,30.67
2022-12-01T05:11:46.174Z,30.90
2022-12-01T05:14:13.170Z,29.15
2022-12-01T05:16:40.341Z,31.40
2022-12-01T05:19:25.577Z,31.48
2022-12-01T05:21:53.132Z,31.85
2022-12-01T05:24:21.093Z,28.90
2022-12-01T05:26:49.516Z,28.83
2022-12-01T05:29:16.896Z,30.70
2022-12-01T05:31:45.706Z,29.30
2022-12-01T05:34:12.889Z,26.45
2022-12-01T05:36:39.807Z,28.08
2022-12-01T05:39:06.829Z,26.73
2022-12-01T05:41:33.676Z,27.05
2022-12-01T05:44:02.067Z,29.50
2022-12-01T05:46:28.970Z,25.00
2022-12-01T05:48:55.932Z,24.50
2022-12-01T05:51:22.811Z,22.27
2022-12-01T05:53:49.842Z,25.35
2022-12-01T05:56:16.880Z,26.73
2022-12-01T05:58:43.979Z,29.42
2022-12-01T06:01:12.193Z,27.38
2022-12-01T06:03:38.967Z,24.63
2022-12-01T06:06:06.293Z,27.27
2022-12-01T06:08:33.205Z,28.95
2022-12-01T06:11:00.272Z,30.80
2022-12-01T06:13:27.265Z,25.60
2022-12-01T06:15:58.797Z,24.80
2022-12-01T06:18:27.959Z,26.48
2022-12-01T06:20:54.986Z,29.27
2022-12-01T06:23:24.308Z,39.88
2022-12-01T06:25:54.525Z,32.85
2022-12-01T06:28:21.414Z,29.95
2022-12-01T06:30:48.373Z,27.30
2022-12-01T06:33:15.348Z,32.53
2022-12-01T06:35:44.297Z,28.63
2022-12-01T06:38:11.315Z,26.52
2022-12-01T06:40:38.462Z,27.45
2022-12-01T06:43:07.051Z,28.42
2022-12-01T06:45:34.112Z,25.90
2022-12-01T06:48:00.926Z,95.95
2022-12-01T06:50:27.736Z,103.78
2022-12-01T06:52:59.018Z,140.80
2022-12-01T06:55:26.218Z,223.18
2022-12-01T06:57:53.593Z,149.50
2022-12-01T07:00:21.562Z,32.45
2022-12-01T07:02:48.693Z,30.08
2022-12-01T07:05:15.883Z,36.08
2022-12-01T07:07:43.076Z,29.17
2022-12-01T07:10:13.793Z,27.90
2022-12-01T07:12:41.122Z,25.17
2022-12-01T07:15:09.484Z,35.92
2022-12-01T07:17:36.728Z,67.60
2022-12-01T07:20:04.427Z,30.90
2022-12-01T07:22:32.962Z,31.50
2022-12-01T07:24:59.942Z,37.67
2022-12-01T07:27:30.773Z,29.92
2022-12-01T07:29:57.921Z,31.35
2022-12-01T07:32:24.731Z,27.30
2022-12-01T07:34:51.590Z,32.40
2022-12-01T07:37:19.769Z,31.20
2022-12-01T07:39:46.880Z,29.58
2022-12-01T07:42:14.013Z,26.90
2022-12-01T07:44:42.489Z,31.13
2022-12-01T07:47:09.678Z,30.88
2022-12-01T07:49:36.683Z,43.13
2022-12-01T07:52:03.931Z,33.92
2022-12-01T07:54:31.001Z,29.42
2022-12-01T07:56:57.939Z,26.77
2022-12-01T07:59:24.909Z,26.17
2022-12-01T08:01:53.152Z,38.08
2022-12-01T08:04:19.977Z,23.02
2022-12-01T08:06:46.972Z,33.53
2022-12-01T08:09:13.775Z,25.00
2022-12-01T08:11:40.894Z,24.88
2022-12-01T08:14:07.842Z,30.50
2022-12-01T08:16:34.962Z,32.05
2022-12-01T08:19:03.500Z,25.85
2022-12-01T08:21:30.428Z,24.98
2022-12-01T08:23:58.029Z,26.13
2022-12-01T08:26:26.597Z,31.13
2022-12-01T08:28:53.693Z,28.92
2022-12-01T08:31:22.635Z,24.23
2022-12-01T08:33:50.949Z,31.10
2022-12-01T08:36:20.739Z,29.80
2022-12-01T08:38:49.100Z,28.65
2022-12-01T08:41:16.657Z,29.25
2022-12-01T08:44:01.065Z,32.67
2022-12-01T08:46:31.168Z,28.52
2022-12-01T08:48:58.520Z,28.85
2022-12-01T08:51:27.129Z,34.47
2022-12-01T08:53:55.830Z,29.50
2022-12-01T08:56:25.703Z,30.25
2022-12-01T08:58:54.285Z,32.45
2022-12-01T09:01:21.421Z,29.83
2022-12-01T09:03:48.804Z,37.78
2022-12-01T09:06:22.906Z,30.33
2022-12-01T09:08:51.100Z,34.30
2022-12-01T09:11:19.571Z,29.52
2022-12-01T09:13:53.005Z,37.75
2022-12-01T09:16:21.799Z,49.60
2022-12-01T09:18:49.332Z,34.97
2022-12-01T09:21:19.020Z,30.80
2022-12-01T09:26:18.316Z,31.70
2022-12-01T09:28:46.123Z,32.90
2022-12-01T09:31:14.710Z,34.78
2022-12-01T09:33:41.922Z,35.72
2022-12-01T09:36:09.750Z,31.55
2022-12-01T09:38:38.659Z,30.38
2022-12-01T09:41:08.584Z,21.70
2022-12-01T09:43:40.933Z,18.55
2022-12-01T09:46:16.447Z,14.73
2022-12-01T09:48:45.960Z,16.30
2022-12-01T09:53:42.618Z,16.63
2022-12-01T09:56:19.222Z,16.70
2022-12-01T09:58:50.893Z,16.08
2022-12-01T10:01:24.446Z,16.73
2022-12-01T10:03:58.067Z,16.23
2022-12-01T10:06:32.387Z,16.27
2022-12-01T10:09:12.857Z,18.48
2022-12-01T10:11:42.487Z,26.73
2022-12-01T10:14:19.662Z,17.25
2022-12-01T10:16:59.958Z,15.60
2022-12-01T10:19:33.884Z,16.40
2022-12-01T10:22:17.531Z,16.55
2022-12-01T10:24:54.679Z,13.90
2022-12-01T10:27:35.172Z,16.25
2022-12-01T10:30:07.454Z,15.93
2022-12-01T10:32:42.977Z,15.48
2022-12-01T10:35:13.128Z,15.93
2022-12-01T10:37:40.233Z,14.73
2022-12-01T10:40:13.127Z,14.15
2022-12-01T10:42:42.430Z,18.42
2022-12-01T10:48:11.462Z,13.45
2022-12-01T10:50:38.331Z,14.73
2022-12-01T10:53:05.313Z,15.30
2022-12-01T10:55:36.680Z,14.02
2022-12-01T10:58:13.395Z,14.65
2022-12-01T11:00:59.490Z,13.38
2022-12-01T11:03:30.736Z,11.63
2022-12-01T11:06:00.949Z,12.60
2022-12-01T11:08:36.210Z,12.60
2022-12-01T11:13:33.937Z,10.45
2022-12-01T11:16:06.476Z,13.65
2022-12-01T11:18:35.302Z,12.68
2022-12-01T11:21:09.131Z,13.43
2022-12-01T11:23:38.198Z,12.48
2022-12-01T11:26:15.294Z,13.70
2022-12-01T11:28:52.476Z,11.45
2022-12-01T11:31:26.944Z,11.30
2022-12-01T11:33:56.227Z,10.00
2022-12-01T11:38:57.751Z,12.05
2022-12-01T11:41:30.897Z,12.45
2022-12-01T11:44:01.932Z,14.15
2022-12-01T11:46:34.804Z,12.27
2022-12-01T11:49:02.420Z,13.10
2022-12-01T11:51:32.994Z,14.35
2022-12-01T11:54:16.329Z,14.60
2022-12-01T11:56:44.114Z,15.50
2022-12-01T11:59:15.423Z,9.15
2022-12-01T12:02:05.919Z,12.13
2022-12-01T12:04:48.524Z,24.40
2022-12-01T12:07:24.411Z,11.77
2022-12-01T12:10:03.208Z,12.07
2022-12-01T12:12:49.088Z,12.80
2022-12-01T12:15:26.592Z,11.13
2022-12-01T12:18:21.308Z,13.07
2022-12-01T12:21:03.111Z,10.57
2022-12-01T12:23:54.523Z,14.23
2022-12-01T12:26:25.502Z,10.23
2022-12-01T12:29:13.480Z,15.02
2022-12-01T12:31:51.183Z,8.50
2022-12-01T12:34:36.274Z,11.88
2022-12-01T12:37:14.719Z,10.18
2022-12-01T12:39:55.692Z,12.98
2022-12-01T12:42:29.696Z,13.13
2022-12-01T12:45:03.884Z,13.40
2022-12-01T12:47:55.246Z,11.55
2022-12-01T12:50:31.496Z,16.05
2022-12-01T12:53:04.614Z,14.10
2022-12-01T12:55:37.668Z,13.48
2022-12-01T12:58:11.472Z,13.35
2022-12-01T13:00:44.180Z,14.10
2022-12-01T13:03:20.182Z,46.58
2022-12-01T13:05:52.672Z,55.28
2022-12-01T13:08:23.423Z,34.42
2022-12-01T13:10:55.966Z,23.00
2022-12-01T13:13:30.122Z,15.70
2022-12-01T13:15:59.953Z,17.45
2022-12-01T13:18:38.031Z,32.60
2022-12-01T13:21:09.635Z,37.58
2022-12-01T13:23:38.697Z,16.23
2022-12-01T13:26:08.358Z,8.02
2022-12-01T13:28:42.813Z,12.93
2022-12-01T13:31:13.221Z,12.93
2022-12-01T13:33:44.116Z,9.05
2022-12-01T13:36:45.311Z,11.70
2022-12-01T13:39:03.685Z,10.88
2022-12-01T13:41:33.815Z,11.07
2022-12-01T13:44:08.199Z,8.55
2022-12-01T13:46:51.800Z,8.48
2022-12-01T13:49:42.279Z,7.90
2022-12-01T13:52:28.922Z,10.00
2022-12-01T13:55:18.574Z,10.38
2022-12-01T13:57:48.931Z,7.57
2022-12-01T14:00:25.447Z,11.80
2022-12-01T14:03:37.382Z,10.52
2022-12-01T14:06:10.536Z,8.82
2022-12-01T14:08:46.474Z,10.35
2022-12-01T14:11:21.550Z,11.30
2022-12-01T14:13:52.382Z,9.95
2022-12-01T14:16:19.495Z,11.05
2022-12-01T14:18:51.504Z,9.43
2022-12-01T14:21:44.298Z,7.97
2022-12-01T14:24:22.310Z,8.80
2022-12-01T14:26:50.401Z,10.45
2022-12-01T14:29:32.397Z,6.78
2022-12-01T14:32:23.115Z,8.77
2022-12-01T14:34:53.772Z,9.27
2022-12-01T14:37:27.540Z,7.03
2022-12-01T14:39:58.705Z,10.45
2022-12-01T14:42:50.930Z,10.52
2022-12-01T14:45:22.490Z,7.20
2022-12-01T14:47:57.130Z,9.40
2022-12-01T14:50:30.120Z,8.27
2022-12-01T14:53:06.231Z,8.75
2022-12-01T14:55:39.027Z,8.48
2022-12-01T14:58:11.284Z,7.63
2022-12-01T15:01:01.063Z,10.57
2022-12-01T15:03:41.612Z,13.27
2022-12-01T15:06:09.087Z,95.97
2022-12-01T15:08:43.628Z,17.95
2022-12-01T15:11:22.079Z,7.35
2022-12-01T15:13:51.568Z,10.05
2022-12-01T15:16:21.584Z,8.30
2022-12-01T15:18:49.124Z,8.43
2022-12-01T15:21:19.654Z,7.93
2022-12-01T15:23:56.646Z,8.25
2022-12-01T15:26:27.419Z,7.70
2022-12-01T15:29:16.600Z,10.57
2022-12-01T15:31:45.680Z,10.00
2022-12-01T15:34:17.292Z,10.43
2022-12-01T15:36:45.148Z,9.10
2022-12-01T15:39:16.905Z,10.63
2022-12-01T15:41:46.419Z,12.40
2022-12-01T15:44:21.471Z,9.90
2022-12-01T15:46:48.743Z,9.07
2022-12-01T15:49:18.758Z,7.78
2022-12-01T15:51:46.679Z,10.55
2022-12-01T15:54:24.488Z,10.05
2022-12-01T15:56:56.704Z,9.30
2022-12-01T15:59:31.077Z,11.00
2022-12-01T16:01:58.621Z,9.57
2022-12-01T16:04:27.630Z,10.85
2022-12-01T16:06:58.839Z,9.77
2022-12-01T16:09:31.402Z,7.38
2022-12-01T16:12:22.834Z,7.85
2022-12-01T16:14:53.920Z,7.55
2022-12-01T16:17:22.150Z,12.00
2022-12-01T16:19:49.255Z,11.35
2022-12-01T16:22:20.262Z,10.30
2022-12-01T16:24:52.041Z,9.45
2022-12-01T16:27:22.862Z,9.18
2022-12-01T16:29:52.684Z,11.98
2022-12-01T16:32:22.999Z,7.88
2022-12-01T16:34:52.884Z,8.52
2022-12-01T16:37:21.707Z,8.02
2022-12-01T16:39:50.758Z,11.27
2022-12-01T16:42:21.158Z,8.05
2022-12-01T16:44:49.181Z,11.05
2022-12-01T16:47:18.271Z,7.30
2022-12-01T16:49:45.138Z,6.68
2022-12-01T16:57:27.288Z,10.13
2022-12-01T16:59:54.126Z,8.27
2022-12-01T17:02:21.033Z,7.25
2022-12-01T17:04:48.143Z,9.13
2022-12-01T17:07:15.138Z,9.73
2022-12-01T17:09:41.864Z,8.48
2022-12-01T17:12:10.072Z,7.90
2022-12-01T17:14:37.026Z,8.13
2022-12-01T17:17:03.972Z,7.88
2022-12-01T17:19:30.867Z,8.07
2022-12-01T17:21:58.222Z,9.90
2022-12-01T17:24:26.047Z,11.70
2022-12-01T17:26:52.883Z,9.23
2022-12-01T17:29:22.300Z,10.77
2022-12-01T17:31:49.316Z,8.30
2022-12-01T17:34:16.134Z,7.55
2022-12-01T17:36:42.963Z,8.68
2022-12-01T17:39:09.856Z,6.85
2022-12-01T17:41:37.114Z,8.60
2022-12-01T17:44:04.893Z,9.73
2022-12-01T17:46:33.229Z,9.93
2022-12-01T17:49:00.872Z,10.80
2022-12-01T17:51:27.681Z,11.95
2022-12-01T17:53:54.897Z,8.20
2022-12-01T17:56:21.711Z,10.45
2022-12-01T17:58:50.486Z,10.10
2022-12-01T18:01:18.979Z,7.03
2022-12-01T18:03:47.673Z,7.05
2022-12-01T18:06:15.874Z,9.82
2022-12-01T18:08:43.218Z,6.88
2022-12-01T18:11:11.902Z,10.60
2022-12-01T18:13:39.846Z,7.20
2022-12-01T18:16:08.076Z,11.05
2022-12-01T18:18:36.807Z,10.48
2022-12-01T18:21:06.847Z,12.57
2022-12-01T18:23:34.015Z,12.43
2022-12-01T18:26:03.440Z,9.05
2022-12-01T18:28:30.559Z,10.75
2022-12-01T18:31:03.594Z,12.68
2022-12-01T18:33:31.306Z,8.25
2022-12-01T18:35:58.016Z,12.77
2022-12-01T18:38:28.171Z,12.18
2022-12-01T18:40:57.370Z,11.07
2022-12-01T18:43:24.419Z,10.73
2022-12-01T18:45:51.423Z,10.63
2022-12-01T18:48:18.245Z,10.68
2022-12-01T18:50:45.191Z,10.90
2022-12-01T18:53:12.020Z,14.43
2022-12-01T18:55:40.570Z,12.23
2022-12-01T18:58:07.795Z,14.18
2022-12-01T19:00:34.890Z,17.45
2022-12-01T19:03:01.843Z,19.25
2022-12-01T19:05:30.938Z,17.17
2022-12-01T19:07:58.299Z,18.30
2022-12-01T19:10:25.252Z,21.27
2022-12-01T19:12:53.391Z,19.75
2022-12-01T19:15:20.337Z,18.35
2022-12-01T19:17:47.106Z,19.30
2022-12-01T19:20:14.019Z,20.30
2022-12-01T19:22:40.861Z,19.40
2022-12-01T19:25:11.311Z,17.63
2022-12-01T19:27:38.143Z,17.80
2022-12-01T19:30:08.544Z,21.00
2022-12-01T19:32:35.401Z,20.23
2022-12-01T19:35:02.189Z,20.15
2022-12-01T19:37:29.770Z,20.08
2022-12-01T19:39:56.604Z,18.08
2022-12-01T19:42:23.449Z,21.30
2022-12-01T19:44:50.664Z,15.55
2022-12-01T19:47:22.176Z,16.40
2022-12-01T19:49:49.503Z,17.67
2022-12-01T19:52:16.260Z,17.08
2022-12-01T19:54:43.259Z,17.35
2022-12-01T19:57:10.194Z,19.00
2022-12-01T19:59:37.100Z,18.98
2022-12-01T20:02:03.976Z,21.13
2022-12-01T20:04:32.472Z,22.65
2022-12-01T20:06:59.319Z,24.05
2022-12-01T20:09:26.578Z,22.38
2022-12-01T20:11:53.765Z,22.95
2022-12-01T20:14:20.647Z,22.13
2022-12-01T20:16:47.685Z,20.70
2022-12-01T20:19:14.738Z,18.67
2022-12-01T20:21:43.423Z,19.45
2022-12-01T20:24:12.554Z,22.05
2022-12-01T20:26:41.304Z,25.95
2022-12-01T20:29:10.011Z,24.05
2022-12-01T20:31:37.727Z,26.88
2022-12-01T20:34:07.797Z,22.15
2022-12-01T20:36:35.471Z,20.30
2022-12-01T20:39:04.647Z,22.38
2022-12-01T20:41:31.540Z,23.38
2022-12-01T20:44:03.759Z,22.50
2022-12-01T20:46:33.711Z,18.88
2022-12-01T20:49:00.546Z,22.13
2022-12-01T20:51:27.697Z,21.50
2022-12-01T20:54:19.830Z,21.75
2022-12-01T20:56:43.071Z,21.88
2022-12-01T20:59:10.243Z,23.08
2022-12-01T21:01:37.056Z,26.70
2022-12-01T21:04:06.317Z,21.33
2022-12-01T21:06:33.162Z,22.35
2022-12-01T21:09:01.566Z,23.02
2022-12-01T21:11:48.958Z,23.55
2022-12-01T21:14:22.248Z,21.02
2022-12-01T21:16:52.026Z,22.75
2022-12-01T21:19:25.301Z,20.73
2022-12-01T21:21:52.115Z,22.98
2022-12-01T21:24:22.248Z,21.55
2022-12-01T21:26:53.031Z,20.77
2022-12-01T21:29:25.099Z,21.30
2022-12-01T21:31:54.593Z,22.52
2022-12-01T21:34:24.113Z,21.90
2022-12-01T21:36:52.627Z,21.17
2022-12-01T21:39:22.164Z,22.23
2022-12-01T21:41:50.826Z,19.30
2022-12-01T21:44:19.488Z,20.35
2022-12-01T21:46:51.855Z,22.20
2022-12-01T21:49:20.523Z,21.80
2022-12-01T21:51:48.976Z,23.27
2022-12-01T21:54:18.879Z,21.48
2022-12-01T21:56:45.753Z,20.58
2022-12-01T21:59:19.050Z,22.85
2022-12-01T22:01:48.496Z,50.65
2022-12-01T22:04:19.213Z,22.10
2022-12-01T22:06:48.328Z,20.77
2022-12-01T22:09:22.092Z,19.88
2022-12-01T22:11:52.978Z,20.95
2022-12-01T22:14:22.123Z,20.95
2022-12-01T22:16:55.320Z,20.38
2022-12-01T22:19:28.596Z,21.58
2022-12-01T22:22:00.974Z,21.15
2022-12-01T22:24:32.836Z,21.88
2022-12-01T22:27:32.248Z,25.23
2022-12-01T22:30:02.087Z,20.83
2022-12-01T22:32:42.063Z,24.60
2022-12-01T22:35:31.634Z,21.05
2022-12-01T22:38:04.061Z,22.52
2022-12-01T22:40:39.451Z,22.02
2022-12-01T22:43:21.652Z,21.67
2022-12-01T22:45:50.479Z,24.85
2022-12-01T22:48:29.600Z,24.05
2022-12-01T22:51:00.929Z,22.33
2022-12-01T22:53:30.661Z,21.08
2022-12-01T22:56:00.918Z,25.92
2022-12-01T22:58:30.742Z,23.65
2022-12-01T23:01:02.461Z,22.48
2022-12-01T23:03:31.747Z,23.23
2022-12-01T23:05:58.595Z,22.17
2022-12-01T23:08:25.481Z,20.92
2022-12-01T23:10:52.324Z,22.73
2022-12-01T23:13:22.436Z,24.20
2022-12-01T23:15:51.108Z,22.15
2022-12-01T23:18:20.593Z,22.00
2022-12-01T23:20:50.476Z,22.65
2022-12-01T23:23:19.366Z,23.80
2022-12-01T23:25:48.805Z,22.50
2022-12-01T23:28:16.053Z,24.15
2022-12-01T23:30:44.872Z,22.90
2022-12-01T23:33:17.847Z,23.65
2022-12-01T23:35:50.886Z,23.38
2022-12-01T23:38:20.173Z,22.30
2022-12-01T23:40:49.173Z,21.52
2022-12-01T23:43:19.805Z,23.48
2022-12-01T23:45:48.117Z,23.52
2022-12-01T23:48:19.451Z,22.67
2022-12-01T23:50:49.116Z,21.90
2022-12-01T23:53:26.597Z,25.08
2022-12-01T23:55:53.584Z,22.98
2022-12-01T23:58:20.757Z,22.35
